Time;durP1;ratioP1;P1;durP2;ratioP2;P2;SDS_P1;SDS_P2;PMS_P1;PMS_P2;Temp;Humidity;BMP_temperature;BMP_pressure;BME280_temperature;BME280_humidity;BME280_pressure;Samples;Min_cycle;Max_cycle;Signal;HPM_P1;HPM_P2
2022/05/24 00:00:54;;;;;;;0.40;0.40;;;18.30;91.00;;;;;;5092475;28;20199;-70
2022/05/24 00:03:42;;;;;;;0.40;0.40;;;18.20;91.20;;;;;;5091566;28;20617;-70
2022/05/24 00:06:33;;;;;;;0.40;0.40;;;18.10;91.40;;;;;;5091101;28;20198;-70
2022/05/24 00:09:21;;;;;;;0.40;0.40;;;18.10;91.60;;;;;;5092228;28;20200;-70
2022/05/24 00:12:10;;;;;;;0.40;0.40;;;18.10;91.80;;;;;;5091496;28;20200;-70
2022/05/24 00:18:07;;;;;;;0.40;0.40;;;18.00;92.10;;;;;;5091290;28;20223;-70
2022/05/24 00:20:57;;;;;;;0.40;0.40;;;18.00;92.30;;;;;;5092865;28;20246;-70
2022/05/24 00:23:47;;;;;;;0.40;0.40;;;18.00;92.50;;;;;;5091220;28;20282;-71
2022/05/24 00:26:35;;;;;;;0.60;0.60;;;18.00;92.70;;;;;;5075248;28;20681;-71
2022/05/24 00:29:23;;;;;;;0.40;0.40;;;18.00;92.90;;;;;;5072566;28;20197;-72
2022/05/24 00:32:11;;;;;;;0.40;0.40;;;18.00;93.00;;;;;;5073171;28;20201;-70
2022/05/24 00:34:59;;;;;;;0.40;0.40;;;18.00;93.10;;;;;;5075234;28;20771;-71
2022/05/24 00:37:49;;;;;;;0.43;0.43;;;18.00;93.30;;;;;;5075409;28;20297;-71
2022/05/24 00:40:51;;;;;;;0.40;0.40;;;18.00;93.50;;;;;;5076959;28;20204;-71
2022/05/24 00:43:44;;;;;;;0.40;0.40;;;18.00;93.80;;;;;;5074431;28;20223;-71
2022/05/24 00:46:42;;;;;;;0.40;0.40;;;18.00;93.80;;;;;;5075318;28;20746;-71
2022/05/24 00:49:35;;;;;;;0.40;0.40;;;18.00;94.10;;;;;;5074882;28;20578;-71
2022/05/24 00:52:28;;;;;;;0.40;0.40;;;18.00;94.20;;;;;;5074715;28;20220;-72
2022/05/24 00:55:21;;;;;;;0.40;0.40;;;18.00;94.40;;;;;;5075575;28;20200;-73
2022/05/24 00:58:18;;;;;;;0.40;0.40;;;18.00;94.60;;;;;;5074257;28;20260;-73
2022/05/24 01:01:21;;;;;;;0.40;0.40;;;18.10;94.70;;;;;;5075103;28;20201;-72
2022/05/24 01:04:13;;;;;;;0.40;0.40;;;18.10;94.80;;;;;;5074415;28;20329;-70
2022/05/24 01:07:01;;;;;;;386.60;75.57;;;18.10;94.80;;;;;;5074688;28;20196;-71
2022/05/24 01:09:55;;;;;;;0.40;0.40;;;18.10;95.00;;;;;;5074117;28;20211;-72
2022/05/24 01:12:47;;;;;;;0.50;0.50;;;18.10;95.20;;;;;;5073909;28;20225;-72
2022/05/24 01:15:37;;;;;;;0.40;0.40;;;18.10;95.40;;;;;;5074234;28;20600;-71
2022/05/24 01:18:26;;;;;;;0.40;0.40;;;18.10;95.60;;;;;;5074115;28;20845;-72
2022/05/24 01:21:17;;;;;;;0.40;0.40;;;18.10;95.80;;;;;;5072746;28;20204;-72
2022/05/24 01:24:13;;;;;;;0.50;0.50;;;18.10;96.00;;;;;;5074489;28;20224;-71
2022/05/24 01:27:03;;;;;;;0.40;0.40;;;18.10;96.10;;;;;;5054239;28;20259;-72
2022/05/24 01:29:51;;;;;;;0.40;0.40;;;18.10;96.40;;;;;;5054499;28;20204;-71
2022/05/24 01:38:54;;;;;;;0.40;0.40;;;18.00;96.80;;;;;;5054891;28;20269;-71
2022/05/24 01:41:45;;;;;;;0.50;0.50;;;18.00;97.10;;;;;;5056596;28;20242;-72
2022/05/24 01:44:45;;;;;;;0.40;0.40;;;18.10;97.30;;;;;;5073317;28;20672;-71
2022/05/24 01:47:35;;;;;;;0.40;0.40;;;18.10;97.40;;;;;;5072645;28;20283;-71
2022/05/24 01:50:24;;;;;;;0.40;0.40;;;18.00;98.20;;;;;;5072608;28;20196;-71
2022/05/24 01:53:17;;;;;;;0.40;0.40;;;18.00;98.60;;;;;;5072413;28;20778;-71
2022/05/24 01:56:09;;;;;;;0.40;0.40;;;18.00;98.80;;;;;;5072620;28;20197;-71
2022/05/24 01:59:01;;;;;;;0.40;0.40;;;18.00;99.00;;;;;;5072022;28;20223;-72
2022/05/24 02:01:53;;;;;;;0.40;0.40;;;18.00;99.10;;;;;;5073407;28;20293;-70
2022/05/24 02:04:41;;;;;;;0.40;0.40;;;18.00;99.10;;;;;;5073768;28;20238;-70
2022/05/24 02:07:29;;;;;;;0.40;0.40;;;18.00;99.50;;;;;;5072679;28;20284;-74
2022/05/24 02:10:18;;;;;;;1.23;1.13;;;18.00;99.70;;;;;;5073302;28;20204;-72
2022/05/24 02:13:07;;;;;;;0.40;0.40;;;18.00;99.90;;;;;;5072265;28;20270;-71
2022/05/24 02:16:00;;;;;;;0.40;0.40;;;18.00;99.90;;;;;;5072900;28;20346;-73
2022/05/24 02:18:51;;;;;;;0.45;0.45;;;18.00;99.90;;;;;;5073084;28;20239;-71
2022/05/24 02:21:44;;;;;;;0.50;0.50;;;18.00;99.90;;;;;;5072557;28;20196;-75
2022/05/24 02:24:32;;;;;;;0.40;0.40;;;18.00;99.90;;;;;;5073175;28;20576;-73
2022/05/24 02:27:20;;;;;;;0.40;0.40;;;18.00;99.90;;;;;;5052507;28;20255;-72
2022/05/24 02:30:09;;;;;;;0.40;0.40;;;17.90;99.90;;;;;;5050955;28;20197;-72
2022/05/24 02:32:57;;;;;;;0.40;0.40;;;17.90;99.90;;;;;;5052775;28;20264;-73
2022/05/24 02:35:47;;;;;;;0.50;0.50;;;17.90;99.90;;;;;;5052487;28;20247;-70
2022/05/24 02:38:36;;;;;;;0.40;0.40;;;17.80;99.90;;;;;;5053721;28;20256;-72
2022/05/24 02:41:28;;;;;;;0.50;0.50;;;17.70;99.90;;;;;;5063168;28;20255;-73
2022/05/24 02:44:17;;;;;;;0.40;0.40;;;17.70;99.90;;;;;;5063109;28;20225;-73
2022/05/24 02:47:06;;;;;;;0.40;0.40;;;17.60;99.90;;;;;;5064356;28;20201;-70
2022/05/24 02:49:54;;;;;;;0.40;0.40;;;17.60;99.90;;;;;;5064209;28;20193;-70
2022/05/24 02:52:44;;;;;;;0.40;0.40;;;17.50;99.90;;;;;;5063651;28;20222;-70
2022/05/24 02:55:32;;;;;;;0.50;0.50;;;17.40;99.90;;;;;;5064252;28;20197;-74
2022/05/24 02:58:20;;;;;;;0.50;0.50;;;17.50;99.90;;;;;;5064216;28;20213;-70
2022/05/24 03:01:15;;;;;;;0.40;0.40;;;17.30;99.90;;;;;;5064218;28;20206;-70
2022/05/24 03:04:04;;;;;;;0.47;0.47;;;17.30;99.90;;;;;;5055824;28;20221;-72
2022/05/24 03:09:59;;;;;;;0.40;0.40;;;17.30;99.90;;;;;;5053309;28;20193;-74
2022/05/24 03:15:53;;;;;;;0.50;0.50;;;17.30;99.90;;;;;;5053220;28;20225;-70
2022/05/24 03:18:41;;;;;;;0.50;0.50;;;17.20;99.90;;;;;;5053046;28;20209;-71
2022/05/24 03:21:29;;;;;;;0.50;0.50;;;17.20;99.90;;;;;;5052493;28;20643;-74
2022/05/24 03:24:18;;;;;;;0.40;0.40;;;17.10;99.90;;;;;;5052348;28;20267;-75
2022/05/24 03:27:11;;;;;;;0.40;0.40;;;17.10;99.90;;;;;;5051540;28;20201;-71
2022/05/24 03:29:59;;;;;;;0.40;0.40;;;17.00;99.90;;;;;;5052354;28;20193;-71
2022/05/24 03:32:49;;;;;;;3.72;3.53;;;17.10;99.90;;;;;;5051857;28;20304;-70
2022/05/24 03:35:38;;;;;;;0.40;0.40;;;17.00;99.90;;;;;;5052555;28;20201;-70
2022/05/24 03:38:27;;;;;;;0.40;0.40;;;17.00;99.90;;;;;;5051934;28;20225;-73
2022/05/24 03:41:15;;;;;;;0.40;0.40;;;17.00;99.90;;;;;;5054291;28;20263;-69
2022/05/24 03:44:05;;;;;;;0.40;0.40;;;16.90;99.90;;;;;;5071500;28;20274;-70
2022/05/24 03:46:53;;;;;;;0.40;0.40;;;16.90;99.90;;;;;;5072303;28;20636;-73
2022/05/24 03:49:41;;;;;;;0.40;0.40;;;16.90;99.90;;;;;;5080528;28;20231;-70
2022/05/24 03:52:29;;;;;;;0.40;0.40;;;16.90;99.90;;;;;;5091419;28;20212;-71
2022/05/24 03:55:18;;;;;;;0.40;0.40;;;16.90;99.90;;;;;;5090662;28;20200;-72
2022/05/24 03:58:06;;;;;;;0.40;0.40;;;16.90;99.90;;;;;;5091617;28;20587;-72
2022/05/24 04:00:56;;;;;;;0.40;0.40;;;16.90;99.90;;;;;;5090428;28;20560;-74
2022/05/24 04:03:45;;;;;;;0.40;0.40;;;16.90;99.90;;;;;;5090525;28;20235;-71
2022/05/24 04:06:33;;;;;;;0.40;0.40;;;17.00;99.90;;;;;;5092075;28;20192;-73
2022/05/24 04:09:21;;;;;;;0.50;0.50;;;17.00;99.90;;;;;;5094902;28;20264;-73
2022/05/24 04:12:10;;;;;;;0.40;0.40;;;17.00;99.90;;;;;;5093913;28;20196;-74
2022/05/24 04:14:58;;;;;;;0.40;0.40;;;17.00;99.90;;;;;;5094937;28;20281;-70
2022/05/24 04:17:48;;;;;;;0.40;0.40;;;17.00;99.90;;;;;;5094857;28;20612;-74
2022/05/24 04:20:36;;;;;;;0.40;0.40;;;17.00;99.90;;;;;;5095927;28;20651;-71
2022/05/24 04:23:25;;;;;;;0.40;0.40;;;17.00;99.90;;;;;;5094983;28;20216;-72
2022/05/24 04:26:13;;;;;;;0.40;0.40;;;17.10;99.90;;;;;;5080749;28;20200;-72
2022/05/24 04:29:01;;;;;;;0.40;0.40;;;17.10;99.90;;;;;;5074391;28;20280;-71
2022/05/24 04:31:49;;;;;;;0.40;0.40;;;17.10;99.90;;;;;;5075173;28;20624;-69
2022/05/24 04:34:39;;;;;;;0.40;0.40;;;17.20;99.90;;;;;;5074184;28;20197;-73
2022/05/24 04:37:27;;;;;;;0.40;0.40;;;17.30;99.90;;;;;;5075396;28;20688;-71
2022/05/24 04:40:16;;;;;;;0.50;0.50;;;17.30;99.90;;;;;;5077132;28;20293;-70
2022/05/24 04:43:03;;;;;;;0.50;0.50;;;17.30;99.90;;;;;;5075187;28;20771;-71
2022/05/24 04:45:53;;;;;;;2.33;2.13;;;17.20;99.90;;;;;;5075307;28;20222;-70
2022/05/24 04:48:41;;;;;;;3.33;2.22;;;17.20;99.90;;;;;;5075179;28;20795;-70
2022/05/24 04:51:31;;;;;;;0.50;0.50;;;17.20;99.90;;;;;;5076409;28;20196;-69
2022/05/24 04:54:19;;;;;;;0.50;0.50;;;17.10;99.90;;;;;;5075979;28;20243;-70
2022/05/24 04:57:08;;;;;;;0.50;0.50;;;17.00;99.90;;;;;;5075779;28;20706;-70
2022/05/24 04:59:56;;;;;;;0.47;0.47;;;16.90;99.90;;;;;;5076401;28;20223;-72
2022/05/24 05:02:44;;;;;;;0.40;0.40;;;16.80;99.90;;;;;;5075930;28;20610;-72
2022/05/24 05:05:33;;;;;;;0.70;0.70;;;16.60;99.90;;;;;;5076234;28;20207;-73
2022/05/24 05:08:22;;;;;;;1.35;1.25;;;16.50;99.90;;;;;;5075058;28;20205;-71
2022/05/24 05:11:10;;;;;;;0.63;0.63;;;16.40;99.90;;;;;;5075470;28;20192;-70
2022/05/24 05:13:58;;;;;;;0.60;0.60;;;16.30;99.90;;;;;;5075596;28;20221;-70
2022/05/24 05:16:47;;;;;;;1.73;1.35;;;16.30;99.90;;;;;;5075365;28;20205;-70
2022/05/24 05:19:35;;;;;;;0.40;0.40;;;16.20;99.90;;;;;;5075412;28;20295;-69
2022/05/24 05:22:23;;;;;;;1.95;1.40;;;16.20;99.90;;;;;;5075727;28;20223;-69
2022/05/24 05:25:13;;;;;;;0.68;0.68;;;16.20;99.90;;;;;;5080599;28;20542;-70
2022/05/24 05:28:02;;;;;;;0.50;0.50;;;16.20;99.90;;;;;;5095765;28;20200;-70
2022/05/24 05:33:58;;;;;;;2.08;1.95;;;16.40;99.90;;;;;;5095362;28;20216;-70
2022/05/24 05:36:47;;;;;;;0.77;0.60;;;16.50;99.90;;;;;;5094205;28;20207;-69
2022/05/24 05:39:36;;;;;;;3.70;1.88;;;16.60;99.90;;;;;;5094541;28;20714;-70
2022/05/24 05:42:25;;;;;;;1.05;1.05;;;16.70;99.90;;;;;;5072686;28;20224;-71
2022/05/24 05:45:15;;;;;;;0.40;0.40;;;16.80;99.90;;;;;;5070753;28;20201;-73
2022/05/24 05:48:03;;;;;;;0.50;0.50;;;16.80;99.90;;;;;;5070335;28;20205;-70
2022/05/24 05:50:51;;;;;;;0.50;0.50;;;16.90;99.90;;;;;;5072734;28;20189;-71
2022/05/24 05:53:40;;;;;;;0.40;0.40;;;16.90;99.90;;;;;;5074491;28;20220;-71
2022/05/24 05:56:28;;;;;;;0.70;0.70;;;16.90;99.90;;;;;;5065929;28;20208;-71
2022/05/24 05:59:17;;;;;;;0.40;0.40;;;16.90;99.90;;;;;;5073217;28;20201;-71
2022/05/24 06:02:06;;;;;;;2.25;2.15;;;16.90;99.90;;;;;;5068676;28;20200;-73
2022/05/24 06:04:54;;;;;;;2.80;1.30;;;16.90;99.90;;;;;;5074410;28;20250;-70
2022/05/24 06:07:42;;;;;;;0.43;0.43;;;16.90;99.90;;;;;;5074365;28;20204;-70
2022/05/24 06:10:30;;;;;;;0.50;0.50;;;16.90;99.90;;;;;;5074564;28;20197;-70
2022/05/24 06:13:18;;;;;;;0.40;0.40;;;17.00;99.90;;;;;;5073261;28;20220;-70
2022/05/24 06:16:10;;;;;;;0.40;0.40;;;17.10;99.90;;;;;;5072890;28;20215;-70
2022/05/24 06:18:58;;;;;;;0.40;0.40;;;17.20;99.90;;;;;;5065729;28;20580;-70
2022/05/24 06:21:46;;;;;;;0.50;0.50;;;17.30;99.90;;;;;;5073563;28;20252;-69
2022/05/24 06:24:34;;;;;;;0.75;0.75;;;17.40;99.90;;;;;;5072685;28;20258;-70
2022/05/24 06:27:24;;;;;;;0.50;0.50;;;17.40;99.90;;;;;;5052800;28;20193;-71
2022/05/24 06:30:14;;;;;;;0.50;0.50;;;17.40;99.90;;;;;;5052126;28;20200;-70
2022/05/24 06:33:03;;;;;;;0.40;0.40;;;17.40;99.90;;;;;;5060451;28;21032;-70
2022/05/24 06:35:51;;;;;;;0.40;0.40;;;17.60;99.90;;;;;;5072839;28;20557;-71
2022/05/24 06:38:40;;;;;;;0.80;0.80;;;18.00;99.90;;;;;;5073421;28;20275;-74
2022/05/24 06:41:28;;;;;;;0.50;0.50;;;18.30;99.90;;;;;;5073487;28;20689;-72
2022/05/24 06:44:16;;;;;;;0.40;0.40;;;18.60;99.90;;;;;;5072460;28;20417;-71
2022/05/24 06:47:04;;;;;;;0.40;0.40;;;18.60;99.90;;;;;;5072433;28;20670;-70
2022/05/24 06:49:55;;;;;;;0.40;0.40;;;18.60;99.90;;;;;;5072385;28;20204;-71
2022/05/24 06:52:44;;;;;;;0.57;0.57;;;18.70;99.90;;;;;;5072205;28;20693;-70
2022/05/24 06:55:38;;;;;;;6.72;1.13;;;18.80;99.90;;;;;;5072606;28;20205;-72
2022/05/24 06:58:26;;;;;;;0.75;0.75;;;18.80;99.90;;;;;;5057510;28;20202;-70
2022/05/24 07:04:21;;;;;;;0.40;0.40;;;18.90;99.90;;;;;;5052358;28;20215;-72
2022/05/24 07:07:10;;;;;;;0.40;0.40;;;18.80;99.90;;;;;;5051726;28;20681;-72
2022/05/24 07:09:59;;;;;;;0.80;0.80;;;18.60;99.90;;;;;;5052431;28;20198;-71
2022/05/24 07:12:47;;;;;;;1.48;1.15;;;18.70;99.90;;;;;;5051649;28;20351;-72
2022/05/24 07:15:35;;;;;;;0.65;0.65;;;18.80;99.90;;;;;;5051967;28;20201;-71
2022/05/24 07:18:26;;;;;;;0.40;0.40;;;19.10;99.90;;;;;;5052191;28;20201;-70
2022/05/24 07:21:14;;;;;;;0.40;0.40;;;19.40;99.90;;;;;;5051878;28;20244;-70
2022/05/24 07:24:04;;;;;;;0.43;0.43;;;19.60;99.90;;;;;;5051983;28;21016;-69
2022/05/24 07:26:53;;;;;;;0.60;0.60;;;19.70;99.90;;;;;;5051123;28;20287;-71
2022/05/24 07:29:42;;;;;;;0.40;0.40;;;19.80;99.90;;;;;;5052055;28;20667;-71
2022/05/24 07:32:31;;;;;;;0.40;0.40;;;20.10;99.90;;;;;;5052218;28;20253;-70
2022/05/24 07:35:19;;;;;;;0.40;0.40;;;20.10;99.90;;;;;;5050822;28;20639;-73
2022/05/24 07:38:08;;;;;;;0.57;0.52;;;20.20;99.90;;;;;;5052051;28;20201;-72
2022/05/24 07:47:10;;;;;;;0.50;0.50;;;19.10;99.90;;;;;;5061447;28;20657;-70
2022/05/24 07:49:59;;;;;;;0.88;0.88;;;18.90;99.90;;;;;;5060855;28;20291;-70
2022/05/24 07:52:47;;;;;;;0.80;0.80;;;18.70;99.90;;;;;;5050623;28;20228;-70
2022/05/24 07:55:36;;;;;;;0.57;0.57;;;18.70;99.90;;;;;;5051017;28;20235;-70
2022/05/24 07:58:26;;;;;;;0.60;0.60;;;18.40;99.90;;;;;;5050931;28;20209;-72
2022/05/24 08:01:16;;;;;;;0.60;0.60;;;18.30;99.90;;;;;;5050906;28;20247;-71
2022/05/24 08:04:05;;;;;;;0.50;0.50;;;18.10;99.90;;;;;;5049992;28;20237;-72
2022/05/24 08:06:54;;;;;;;0.40;0.40;;;18.10;99.90;;;;;;5050486;28;20201;-70
2022/05/24 08:09:43;;;;;;;0.40;0.40;;;18.00;99.90;;;;;;5050588;28;20194;-71
2022/05/24 08:12:32;;;;;;;0.40;0.40;;;18.00;99.90;;;;;;5050812;28;20320;-72
2022/05/24 08:15:25;;;;;;;0.43;0.43;;;18.20;99.90;;;;;;5051277;28;20205;-70
2022/05/24 08:18:18;;;;;;;0.40;0.40;;;18.40;99.90;;;;;;5050853;28;20292;-72
2022/05/24 08:21:07;;;;;;;0.55;0.55;;;18.80;99.90;;;;;;5049938;28;20220;-70
2022/05/24 08:23:59;;;;;;;0.60;0.60;;;19.10;99.90;;;;;;5049500;28;20343;-70
2022/05/24 08:26:47;;;;;;;0.40;0.40;;;19.30;99.90;;;;;;5067994;28;20205;-71
2022/05/24 08:29:37;;;;;;;0.40;0.40;;;19.60;99.90;;;;;;5061736;28;20193;-70
2022/05/24 08:32:30;;;;;;;0.75;0.75;;;19.90;99.90;;;;;;5060533;28;20213;-71
2022/05/24 08:35:20;;;;;;;0.40;0.40;;;20.10;99.90;;;;;;5061338;28;20208;-70
2022/05/24 08:38:09;;;;;;;0.50;0.50;;;20.10;99.90;;;;;;5067026;28;20199;-71
2022/05/24 08:41:04;;;;;;;0.50;0.50;;;20.40;99.90;;;;;;5066879;28;20255;-71
2022/05/24 08:50:33;;;;;;;0.40;0.40;;;20.40;99.90;;;;;;5050695;28;20215;-73
2022/05/24 08:53:29;;;;;;;0.40;0.40;;;20.40;99.90;;;;;;5050965;28;20309;-71
2022/05/24 08:56:23;;;;;;;0.40;0.40;;;20.60;99.90;;;;;;5063869;28;20208;-71
2022/05/24 08:59:18;;;;;;;0.40;0.40;;;20.70;99.90;;;;;;5066831;28;20199;-71
2022/05/24 09:02:12;;;;;;;0.73;0.73;;;20.70;99.90;;;;;;5058228;28;20213;-71
2022/05/24 09:05:04;;;;;;;0.50;0.50;;;20.70;99.90;;;;;;5054102;28;20208;-71
2022/05/24 09:08:07;;;;;;;0.60;0.60;;;20.70;99.90;;;;;;5054841;28;20197;-70
2022/05/24 09:11:07;;;;;;;0.40;0.40;;;20.70;99.90;;;;;;5054446;28;20210;-71
2022/05/24 09:14:11;;;;;;;0.40;0.40;;;20.60;99.90;;;;;;5054156;28;20629;-70
2022/05/24 09:17:11;;;;;;;0.40;0.40;;;20.60;99.90;;;;;;5053439;28;20209;-71
2022/05/24 09:20:06;;;;;;;0.60;0.60;;;20.70;99.90;;;;;;5064992;28;20209;-70
2022/05/24 09:23:01;;;;;;;0.40;0.40;;;20.80;99.90;;;;;;5073152;28;20298;-71
2022/05/24 09:26:00;;;;;;;0.50;0.50;;;20.60;99.90;;;;;;5069071;28;20988;-70
2022/05/24 09:28:52;;;;;;;0.60;0.60;;;20.40;99.90;;;;;;5066004;28;20200;-70
2022/05/24 09:31:45;;;;;;;0.50;0.50;;;20.50;99.90;;;;;;5060864;28;20198;-70
2022/05/24 09:34:36;;;;;;;0.45;0.45;;;20.60;99.90;;;;;;5063732;28;20224;-72
2022/05/24 09:37:30;;;;;;;0.40;0.40;;;20.60;99.90;;;;;;5064114;28;20206;-70
2022/05/24 09:40:26;;;;;;;0.50;0.50;;;20.70;99.90;;;;;;5063879;28;20575;-71
2022/05/24 09:43:26;;;;;;;0.47;0.45;;;20.70;99.90;;;;;;5065368;28;20768;-70
2022/05/24 09:46:23;;;;;;;0.40;0.40;;;20.70;99.90;;;;;;5066773;28;20196;-71
2022/05/24 09:49:23;;;;;;;0.50;0.50;;;20.90;99.90;;;;;;5063149;28;20583;-70
2022/05/24 09:52:16;;;;;;;0.50;0.50;;;21.10;99.90;;;;;;5063961;28;20193;-71
2022/05/24 09:55:10;;;;;;;0.40;0.40;;;21.30;99.90;;;;;;5063275;28;20212;-72
2022/05/24 09:58:24;;;;;;;0.60;0.60;;;21.70;99.90;;;;;;5064278;28;20189;-70
2022/05/24 10:01:35;;;;;;;0.50;0.50;;;21.90;99.90;;;;;;5063626;28;20209;-71
2022/05/24 10:04:27;;;;;;;1.40;0.80;;;21.90;99.90;;;;;;5063326;28;20193;-71
2022/05/24 10:07:25;;;;;;;0.40;0.40;;;21.50;99.90;;;;;;5064742;28;20276;-71
2022/05/24 10:10:23;;;;;;;1.15;0.60;;;21.30;99.90;;;;;;5066407;28;20299;-71
2022/05/24 10:13:18;;;;;;;0.50;0.50;;;21.20;99.90;;;;;;5061844;28;20220;-70
2022/05/24 10:16:18;;;;;;;0.40;0.40;;;21.30;99.90;;;;;;5070190;28;20235;-71
2022/05/24 10:19:30;;;;;;;0.70;0.68;;;21.50;99.90;;;;;;5069347;28;20208;-72
2022/05/24 10:22:34;;;;;;;0.40;0.40;;;21.70;99.90;;;;;;5064203;28;20224;-71
2022/05/24 10:25:35;;;;;;;0.40;0.40;;;21.70;99.90;;;;;;5065373;28;20201;-69
2022/05/24 10:28:39;;;;;;;0.40;0.40;;;21.90;99.90;;;;;;5061847;28;20204;-71
2022/05/24 10:31:41;;;;;;;0.40;0.40;;;22.00;99.90;;;;;;5052069;28;20200;-71
2022/05/24 10:38:23;;;;;;;2.15;0.85;;;22.40;99.90;;;;;;5065772;28;20743;-70
2022/05/24 10:41:19;;;;;;;0.40;0.40;;;22.40;99.90;;;;;;5060846;28;20258;-69
2022/05/24 10:44:14;;;;;;;0.40;0.40;;;22.30;99.90;;;;;;5060538;28;20227;-70
2022/05/24 10:47:17;;;;;;;0.40;0.40;;;22.20;99.90;;;;;;5067430;28;20581;-70
2022/05/24 10:50:17;;;;;;;0.40;0.40;;;22.40;99.90;;;;;;5070652;28;20568;-69
2022/05/24 10:53:14;;;;;;;0.40;0.40;;;22.90;99.90;;;;;;5069335;28;20569;-70
2022/05/24 10:56:07;;;;;;;0.40;0.40;;;23.80;99.90;;;;;;5065166;28;20204;-69
2022/05/24 10:59:08;;;;;;;0.50;0.50;;;24.30;99.90;;;;;;5071450;28;20551;-69
2022/05/24 11:02:09;;;;;;;0.40;0.40;;;24.70;99.90;;;;;;5072037;28;20274;-69
2022/05/24 11:05:08;;;;;;;0.40;0.40;;;25.00;99.90;;;;;;5076731;28;20199;-70
2022/05/24 11:08:15;;;;;;;0.40;0.40;;;24.90;99.90;;;;;;5092299;28;20305;-70
2022/05/24 11:11:11;;;;;;;0.40;0.40;;;24.70;99.90;;;;;;5091169;28;20695;-69
2022/05/24 11:14:09;;;;;;;0.40;0.40;;;24.90;99.90;;;;;;5092717;28;20941;-69
2022/05/24 11:17:02;;;;;;;0.45;0.45;;;25.00;99.90;;;;;;5090420;28;20222;-69
2022/05/24 11:20:03;;;;;;;0.40;0.40;;;24.70;99.90;;;;;;5073675;28;20189;-69
2022/05/24 11:23:06;;;;;;;0.40;0.40;;;24.10;99.90;;;;;;5065524;28;20224;-69
2022/05/24 11:26:10;;;;;;;0.40;0.40;;;23.60;99.90;;;;;;5065573;28;20287;-69
2022/05/24 11:29:20;;;;;;;0.40;0.40;;;23.50;99.90;;;;;;5061127;28;20996;-69
2022/05/24 11:32:35;;;;;;;0.50;0.50;;;23.70;99.90;;;;;;5051628;28;20218;-70
2022/05/24 11:35:29;;;;;;;0.40;0.40;;;23.60;99.90;;;;;;5068746;28;20195;-70
2022/05/24 11:38:23;;;;;;;0.57;0.57;;;23.70;99.90;;;;;;5052899;28;20198;-69
2022/05/24 11:41:27;;;;;;;0.40;0.40;;;23.80;99.90;;;;;;5050981;28;20480;-70
2022/05/24 11:44:37;;;;;;;0.40;0.40;;;23.90;99.90;;;;;;5066515;28;20273;-70
2022/05/24 11:47:59;;;;;;;0.40;0.40;;;24.00;99.90;;;;;;5063242;28;20231;-69
2022/05/24 11:51:02;;;;;;;0.45;0.45;;;23.90;99.90;;;;;;5060663;28;20212;-68
2022/05/24 11:54:01;;;;;;;0.40;0.40;;;23.60;99.90;;;;;;5052147;28;20264;-69
2022/05/24 11:56:53;;;;;;;0.40;0.40;;;23.50;99.90;;;;;;5050677;28;20213;-70
2022/05/24 11:59:52;;;;;;;0.40;0.40;;;23.30;99.90;;;;;;5058310;28;20277;-70
2022/05/24 12:09:56;;;;;;;0.40;0.40;;;23.30;99.90;;;;;;5067404;28;20204;-70
2022/05/24 12:12:56;;;;;;;0.50;0.50;;;23.20;99.90;;;;;;5068138;28;20216;-70
2022/05/24 12:15:50;;;;;;;0.47;0.47;;;22.90;99.90;;;;;;5070709;28;20238;-72
2022/05/24 12:18:56;;;;;;;0.60;0.60;;;22.80;99.90;;;;;;5070526;28;20197;-70
2022/05/24 12:22:08;;;;;;;0.85;0.85;;;22.90;99.90;;;;;;5070166;28;20200;-71
2022/05/24 12:25:09;;;;;;;0.50;0.50;;;22.70;99.90;;;;;;5069307;28;20205;-71
2022/05/24 12:28:05;;;;;;;0.40;0.40;;;22.60;99.90;;;;;;5070467;28;20196;-71
2022/05/24 12:31:00;;;;;;;0.60;0.60;;;22.60;99.90;;;;;;5068356;28;20201;-70
2022/05/24 12:33:55;;;;;;;0.40;0.40;;;22.60;99.90;;;;;;5075283;28;20216;-71
2022/05/24 12:36:57;;;;;;;0.70;0.70;;;22.50;99.90;;;;;;5076848;28;20197;-70
2022/05/24 12:40:13;;;;;;;0.50;0.50;;;22.70;99.90;;;;;;5074189;28;20197;-70
2022/05/24 12:43:14;;;;;;;0.50;0.50;;;23.40;99.90;;;;;;5075610;28;20216;-69
2022/05/24 12:46:17;;;;;;;0.40;0.40;;;24.60;99.90;;;;;;5073925;28;20669;-69
2022/05/24 12:49:09;;;;;;;0.50;0.47;;;25.40;98.60;;;;;;5075123;28;20334;-69
2022/05/24 12:52:17;;;;;;;1.08;0.98;;;25.40;97.40;;;;;;5073497;28;20196;-69
2022/05/24 12:55:54;;;;;;;0.47;0.47;;;25.00;97.40;;;;;;5074504;28;20199;-69
2022/05/24 12:58:32;;;;;;;0.70;0.50;;;24.80;97.90;;;;;;5074930;28;20661;-69
2022/05/24 13:01:28;;;;;;;0.50;0.50;;;24.20;98.10;;;;;;5071942;28;20201;-69
2022/05/24 13:04:27;;;;;;;0.50;0.50;;;23.90;99.10;;;;;;5067695;28;20220;-70
2022/05/24 13:07:39;;;;;;;0.60;0.60;;;23.60;99.50;;;;;;5069909;28;20200;-70
2022/05/24 13:10:31;;;;;;;0.75;0.75;;;23.30;99.80;;;;;;5073200;28;20208;-70
2022/05/24 13:13:23;;;;;;;0.50;0.50;;;23.20;99.90;;;;;;5073210;28;20304;-71
2022/05/24 13:16:13;;;;;;;0.80;0.80;;;23.30;99.90;;;;;;5053421;28;20280;-71
2022/05/24 13:19:06;;;;;;;0.40;0.40;;;23.50;99.90;;;;;;5052407;28;20205;-71
2022/05/24 13:21:57;;;;;;;0.90;0.90;;;23.60;99.90;;;;;;5052655;28;20220;-71
2022/05/24 13:24:55;;;;;;;1.38;0.77;;;23.60;99.90;;;;;;5056799;28;20224;-71
2022/05/24 13:27:55;;;;;;;0.98;0.88;;;23.40;99.90;;;;;;5088700;28;20200;-71
2022/05/24 13:33:54;;;;;;;0.90;0.63;;;22.90;99.90;;;;;;5063732;28;20225;-71
2022/05/24 13:36:48;;;;;;;0.68;0.68;;;22.40;99.90;;;;;;5072055;28;20207;-72
2022/05/24 13:39:56;;;;;;;0.75;0.75;;;21.90;99.90;;;;;;5065667;28;20190;-72
2022/05/24 13:42:58;;;;;;;1.20;1.10;;;21.90;99.90;;;;;;5060268;28;20225;-71
2022/05/24 13:45:49;;;;;;;1.58;1.48;;;22.90;99.90;;;;;;5067308;28;20261;-70
2022/05/24 13:48:43;;;;;;;0.90;0.80;;;22.80;99.90;;;;;;5066153;28;20637;-71
2022/05/24 13:51:35;;;;;;;0.43;0.43;;;23.00;99.90;;;;;;5070105;28;20250;-71
2022/05/24 13:54:37;;;;;;;0.50;0.50;;;22.70;99.90;;;;;;5065938;28;20200;-70
2022/05/24 13:57:29;;;;;;;0.70;0.70;;;22.50;99.90;;;;;;5067880;28;20234;-70
2022/05/24 14:00:42;;;;;;;0.75;0.75;;;22.00;99.90;;;;;;5075157;28;20668;-70
2022/05/24 14:03:43;;;;;;;0.60;0.60;;;21.70;99.90;;;;;;5067946;28;20769;-70
2022/05/24 14:06:41;;;;;;;0.73;0.60;;;24.20;99.90;;;;;;5069732;28;20196;-71
2022/05/24 14:09:34;;;;;;;0.50;0.50;;;25.80;99.90;;;;;;5069178;28;20193;-70
2022/05/24 14:12:23;;;;;;;0.40;0.40;;;26.90;99.90;;;;;;5069278;28;20272;-70
2022/05/24 14:15:18;;;;;;;0.50;0.50;;;26.40;99.60;;;;;;5069747;28;20200;-70
2022/05/24 14:18:08;;;;;;;1.45;1.35;;;25.50;99.90;;;;;;5067785;28;20721;-69
2022/05/24 14:20:58;;;;;;;0.60;0.60;;;25.20;99.90;;;;;;5064677;28;20208;-71
2022/05/24 14:23:47;;;;;;;0.50;0.50;;;24.00;99.90;;;;;;5066849;28;20212;-71
2022/05/24 14:26:38;;;;;;;0.60;0.60;;;23.40;99.90;;;;;;5066450;28;20288;-70
2022/05/24 14:29:34;;;;;;;0.45;0.45;;;23.40;99.90;;;;;;5071060;28;20228;-69
2022/05/24 14:32:24;;;;;;;0.50;0.50;;;24.50;99.90;;;;;;5070429;28;20312;-70
2022/05/24 14:35:14;;;;;;;0.50;0.50;;;25.10;98.40;;;;;;5071627;28;20197;-69
2022/05/24 14:38:07;;;;;;;0.40;0.40;;;26.40;96.70;;;;;;5081448;28;20684;-69
2022/05/24 14:40:55;;;;;;;0.60;0.60;;;26.70;95.90;;;;;;5078767;28;20747;-69
2022/05/24 14:43:47;;;;;;;0.45;0.45;;;26.40;95.10;;;;;;5076194;28;20358;-69
2022/05/24 14:46:40;;;;;;;0.60;0.60;;;25.10;95.90;;;;;;5081379;28;20234;-70
2022/05/24 14:49:34;;;;;;;0.73;0.73;;;24.70;96.50;;;;;;5078570;28;20276;-69
2022/05/24 14:52:29;;;;;;;0.65;0.65;;;25.00;96.70;;;;;;5079021;28;20311;-70
2022/05/24 14:55:23;;;;;;;0.50;0.50;;;24.50;97.30;;;;;;5079745;28;20197;-70
2022/05/24 14:58:12;;;;;;;0.40;0.40;;;25.80;96.50;;;;;;5065169;28;20709;-68
2022/05/24 15:01:02;;;;;;;1.95;1.77;;;27.90;94.40;;;;;;5068174;28;20196;-68
2022/05/24 15:03:53;;;;;;;0.50;0.50;;;30.10;91.50;;;;;;5065474;28;20615;-68
2022/05/24 15:06:52;;;;;;;0.50;0.50;;;30.10;87.60;;;;;;5063125;28;20687;-68
2022/05/24 15:16:17;;;;;;;0.50;0.50;;;27.80;87.20;;;;;;5027115;28;20202;-71
2022/05/24 15:19:13;;;;;;;0.40;0.40;;;26.80;89.80;;;;;;5066317;28;20605;-68
2022/05/24 15:22:05;;;;;;;0.50;0.50;;;28.10;89.50;;;;;;5051456;28;20189;-69
2022/05/24 15:24:59;;;;;;;0.60;0.60;;;30.00;85.40;;;;;;5057332;28;20306;-69
2022/05/24 15:28:01;;;;;;;0.50;0.40;;;31.60;82.60;;;;;;5091628;28;20195;-68
2022/05/24 15:30:53;;;;;;;0.40;0.40;;;32.60;76.00;;;;;;5090087;28;20196;-69
2022/05/24 15:33:44;;;;;;;0.40;0.40;;;32.50;75.00;;;;;;5090897;28;20212;-69
2022/05/24 15:36:33;;;;;;;0.40;0.40;;;33.10;74.40;;;;;;5091657;28;20672;-70
2022/05/24 15:39:25;;;;;;;0.50;0.50;;;33.70;69.90;;;;;;5089968;28;20246;-69
2022/05/24 15:42:21;;;;;;;0.40;0.40;;;35.00;66.80;;;;;;5091038;28;20311;-68
2022/05/24 15:45:13;;;;;;;0.60;0.60;;;34.90;63.20;;;;;;5086650;28;20665;-69
2022/05/24 15:48:03;;;;;;;0.50;0.50;;;34.50;62.20;;;;;;5051072;28;20573;-68
2022/05/24 15:50:54;;;;;;;0.40;0.40;;;33.20;62.70;;;;;;5051928;28;20223;-69
2022/05/24 15:53:46;;;;;;;0.40;0.40;;;33.00;64.10;;;;;;5050034;28;20287;-69